sensor_id;sensor_type;location;lat;lon;timestamp;P1;durP1;ratioP1;P2;durP2;ratioP2
40164;SDS011;25882;51.120;17.248;2022-07-30T00:01:30;4.43;;;2.25;;
40164;SDS011;25882;51.120;17.248;2022-07-30T00:03:58;4.00;;;1.98;;
40164;SDS011;25882;51.120;17.248;2022-07-30T00:06:24;6.50;;;2.20;;
40164;SDS011;25882;51.120;17.248;2022-07-30T00:08:50;9.55;;;2.35;;
40164;SDS011;25882;51.120;17.248;2022-07-30T00:11:17;6.93;;;2.20;;
40164;SDS011;25882;51.120;17.248;2022-07-30T00:13:44;3.60;;;2.10;;
40164;SDS011;25882;51.120;17.248;2022-07-30T00:16:10;6.72;;;2.00;;
40164;SDS011;25882;51.120;17.248;2022-07-30T00:18:37;6.22;;;2.30;;
40164;SDS011;25882;51.120;17.248;2022-07-30T00:21:03;6.10;;;2.22;;
40164;SDS011;25882;51.120;17.248;2022-07-30T00:23:29;4.38;;;1.80;;
40164;SDS011;25882;51.120;17.248;2022-07-30T00:25:56;3.42;;;2.10;;
40164;SDS011;25882;51.120;17.248;2022-07-30T00:28:23;5.60;;;1.65;;
40164;SDS011;25882;51.120;17.248;2022-07-30T00:30:50;6.35;;;2.17;;
40164;SDS011;25882;51.120;17.248;2022-07-30T00:33:17;4.72;;;2.17;;
40164;SDS011;25882;51.120;17.248;2022-07-30T00:35:43;6.72;;;1.90;;
40164;SDS011;25882;51.120;17.248;2022-07-30T00:38:10;3.10;;;1.70;;
40164;SDS011;25882;51.120;17.248;2022-07-30T00:40:36;4.43;;;1.80;;
40164;SDS011;25882;51.120;17.248;2022-07-30T00:43:03;3.00;;;1.55;;
40164;SDS011;25882;51.120;17.248;2022-07-30T00:45:29;3.72;;;1.85;;
40164;SDS011;25882;51.120;17.248;2022-07-30T00:47:57;3.78;;;2.00;;
40164;SDS011;25882;51.120;17.248;2022-07-30T00:50:26;7.68;;;2.10;;
40164;SDS011;25882;51.120;17.248;2022-07-30T00:53:11;6.78;;;2.35;;
40164;SDS011;25882;51.120;17.248;2022-07-30T00:55:37;6.20;;;2.17;;
40164;SDS011;25882;51.120;17.248;2022-07-30T00:58:03;4.97;;;2.05;;
40164;SDS011;25882;51.120;17.248;2022-07-30T01:00:30;3.63;;;2.00;;
40164;SDS011;25882;51.120;17.248;2022-07-30T01:02:57;3.85;;;1.98;;
40164;SDS011;25882;51.120;17.248;2022-07-30T01:05:23;7.03;;;3.13;;
40164;SDS011;25882;51.120;17.248;2022-07-30T01:07:50;5.18;;;2.25;;
40164;SDS011;25882;51.120;17.248;2022-07-30T01:10:16;5.18;;;2.05;;
40164;SDS011;25882;51.120;17.248;2022-07-30T01:12:43;5.63;;;1.98;;
40164;SDS011;25882;51.120;17.248;2022-07-30T01:15:10;5.88;;;2.33;;
40164;SDS011;25882;51.120;17.248;2022-07-30T01:17:37;7.28;;;1.90;;
40164;SDS011;25882;51.120;17.248;2022-07-30T01:20:05;2.95;;;2.03;;
40164;SDS011;25882;51.120;17.248;2022-07-30T01:22:38;5.22;;;2.30;;
40164;SDS011;25882;51.120;17.248;2022-07-30T01:25:11;4.47;;;2.00;;
40164;SDS011;25882;51.120;17.248;2022-07-30T01:27:44;3.50;;;2.10;;
40164;SDS011;25882;51.120;17.248;2022-07-30T01:30:14;7.43;;;2.58;;
40164;SDS011;25882;51.120;17.248;2022-07-30T01:32:42;6.57;;;2.28;;
40164;SDS011;25882;51.120;17.248;2022-07-30T01:35:09;7.32;;;2.60;;
40164;SDS011;25882;51.120;17.248;2022-07-30T01:37:36;5.72;;;2.63;;
40164;SDS011;25882;51.120;17.248;2022-07-30T01:40:03;6.45;;;2.28;;
40164;SDS011;25882;51.120;17.248;2022-07-30T01:42:30;8.85;;;2.15;;
40164;SDS011;25882;51.120;17.248;2022-07-30T01:44:59;4.63;;;2.00;;
40164;SDS011;25882;51.120;17.248;2022-07-30T01:47:25;5.30;;;2.50;;
40164;SDS011;25882;51.120;17.248;2022-07-30T01:49:52;6.90;;;2.33;;
40164;SDS011;25882;51.120;17.248;2022-07-30T01:52:20;4.45;;;1.95;;
40164;SDS011;25882;51.120;17.248;2022-07-30T01:54:49;4.15;;;1.90;;
40164;SDS011;25882;51.120;17.248;2022-07-30T01:57:16;4.18;;;2.00;;
40164;SDS011;25882;51.120;17.248;2022-07-30T01:59:44;5.97;;;2.35;;
40164;SDS011;25882;51.120;17.248;2022-07-30T02:02:15;5.95;;;2.20;;
40164;SDS011;25882;51.120;17.248;2022-07-30T02:04:41;5.78;;;1.63;;
40164;SDS011;25882;51.120;17.248;2022-07-30T02:07:09;3.47;;;2.15;;
40164;SDS011;25882;51.120;17.248;2022-07-30T02:09:40;6.43;;;2.65;;
40164;SDS011;25882;51.120;17.248;2022-07-30T02:12:10;4.20;;;2.05;;
40164;SDS011;25882;51.120;17.248;2022-07-30T02:14:53;4.68;;;1.98;;
40164;SDS011;25882;51.120;17.248;2022-07-30T02:19:53;5.93;;;2.25;;
40164;SDS011;25882;51.120;17.248;2022-07-30T02:22:22;3.83;;;1.73;;
40164;SDS011;25882;51.120;17.248;2022-07-30T02:24:50;9.10;;;2.20;;
40164;SDS011;25882;51.120;17.248;2022-07-30T02:27:19;3.78;;;1.88;;
40164;SDS011;25882;51.120;17.248;2022-07-30T02:32:14;5.47;;;1.70;;
40164;SDS011;25882;51.120;17.248;2022-07-30T02:34:45;5.00;;;2.00;;
40164;SDS011;25882;51.120;17.248;2022-07-30T02:39:41;4.20;;;1.77;;
40164;SDS011;25882;51.120;17.248;2022-07-30T02:42:08;4.45;;;1.75;;
40164;SDS011;25882;51.120;17.248;2022-07-30T02:44:35;5.60;;;2.42;;
40164;SDS011;25882;51.120;17.248;2022-07-30T02:47:02;2.63;;;1.83;;
40164;SDS011;25882;51.120;17.248;2022-07-30T02:49:29;5.85;;;2.10;;
40164;SDS011;25882;51.120;17.248;2022-07-30T02:52:01;3.42;;;1.80;;
40164;SDS011;25882;51.120;17.248;2022-07-30T02:54:28;4.43;;;1.95;;
40164;SDS011;25882;51.120;17.248;2022-07-30T02:56:55;4.65;;;2.15;;
40164;SDS011;25882;51.120;17.248;2022-07-30T02:59:22;4.15;;;1.83;;
40164;SDS011;25882;51.120;17.248;2022-07-30T03:01:49;5.45;;;2.53;;
40164;SDS011;25882;51.120;17.248;2022-07-30T03:04:17;4.10;;;1.80;;
40164;SDS011;25882;51.120;17.248;2022-07-30T03:06:44;4.97;;;1.67;;
40164;SDS011;25882;51.120;17.248;2022-07-30T03:09:11;5.40;;;1.75;;
40164;SDS011;25882;51.120;17.248;2022-07-30T03:11:37;2.95;;;1.75;;
40164;SDS011;25882;51.120;17.248;2022-07-30T03:14:05;3.08;;;1.80;;
40164;SDS011;25882;51.120;17.248;2022-07-30T03:16:33;1.98;;;1.45;;
40164;SDS011;25882;51.120;17.248;2022-07-30T03:19:01;4.57;;;2.00;;
40164;SDS011;25882;51.120;17.248;2022-07-30T03:21:28;6.88;;;2.20;;
40164;SDS011;25882;51.120;17.248;2022-07-30T03:23:56;4.22;;;1.90;;
40164;SDS011;25882;51.120;17.248;2022-07-30T03:26:24;5.05;;;2.40;;
40164;SDS011;25882;51.120;17.248;2022-07-30T03:28:51;8.20;;;2.13;;
40164;SDS011;25882;51.120;17.248;2022-07-30T03:31:17;4.38;;;2.35;;
40164;SDS011;25882;51.120;17.248;2022-07-30T03:33:44;4.25;;;1.65;;
40164;SDS011;25882;51.120;17.248;2022-07-30T03:36:11;4.90;;;1.98;;
40164;SDS011;25882;51.120;17.248;2022-07-30T03:38:38;7.38;;;1.70;;
40164;SDS011;25882;51.120;17.248;2022-07-30T03:41:06;8.00;;;2.08;;
40164;SDS011;25882;51.120;17.248;2022-07-30T03:43:34;4.00;;;1.85;;
40164;SDS011;25882;51.120;17.248;2022-07-30T03:46:03;4.28;;;1.65;;
40164;SDS011;25882;51.120;17.248;2022-07-30T03:48:30;3.17;;;1.60;;
40164;SDS011;25882;51.120;17.248;2022-07-30T03:50:57;3.17;;;1.65;;
40164;SDS011;25882;51.120;17.248;2022-07-30T03:53:24;4.85;;;2.35;;
40164;SDS011;25882;51.120;17.248;2022-07-30T03:55:52;5.13;;;1.80;;
40164;SDS011;25882;51.120;17.248;2022-07-30T03:58:18;7.38;;;1.70;;
40164;SDS011;25882;51.120;17.248;2022-07-30T04:00:48;6.40;;;1.67;;
40164;SDS011;25882;51.120;17.248;2022-07-30T04:03:23;4.33;;;1.77;;
40164;SDS011;25882;51.120;17.248;2022-07-30T04:05:50;3.55;;;1.52;;
40164;SDS011;25882;51.120;17.248;2022-07-30T04:08:16;3.67;;;1.67;;
40164;SDS011;25882;51.120;17.248;2022-07-30T04:10:42;6.65;;;1.85;;
40164;SDS011;25882;51.120;17.248;2022-07-30T04:13:08;3.83;;;1.40;;
40164;SDS011;25882;51.120;17.248;2022-07-30T04:15:36;6.85;;;1.85;;
40164;SDS011;25882;51.120;17.248;2022-07-30T04:18:07;4.47;;;1.50;;
40164;SDS011;25882;51.120;17.248;2022-07-30T04:20:37;3.15;;;1.20;;
40164;SDS011;25882;51.120;17.248;2022-07-30T04:23:05;5.07;;;1.83;;
40164;SDS011;25882;51.120;17.248;2022-07-30T04:25:32;4.32;;;1.35;;
40164;SDS011;25882;51.120;17.248;2022-07-30T04:27:59;4.15;;;1.85;;
40164;SDS011;25882;51.120;17.248;2022-07-30T04:30:25;3.72;;;1.63;;
40164;SDS011;25882;51.120;17.248;2022-07-30T04:32:52;6.82;;;3.00;;
40164;SDS011;25882;51.120;17.248;2022-07-30T04:35:26;2.88;;;1.23;;
40164;SDS011;25882;51.120;17.248;2022-07-30T04:37:53;5.28;;;1.90;;
40164;SDS011;25882;51.120;17.248;2022-07-30T04:40:19;3.92;;;1.27;;
40164;SDS011;25882;51.120;17.248;2022-07-30T04:42:45;2.38;;;1.50;;
40164;SDS011;25882;51.120;17.248;2022-07-30T04:45:12;3.45;;;1.63;;
40164;SDS011;25882;51.120;17.248;2022-07-30T04:47:38;1.90;;;1.40;;
40164;SDS011;25882;51.120;17.248;2022-07-30T04:50:04;2.33;;;1.70;;
40164;SDS011;25882;51.120;17.248;2022-07-30T04:52:33;3.67;;;1.77;;
40164;SDS011;25882;51.120;17.248;2022-07-30T04:55:01;5.53;;;1.77;;
40164;SDS011;25882;51.120;17.248;2022-07-30T04:57:29;5.28;;;1.52;;
40164;SDS011;25882;51.120;17.248;2022-07-30T04:59:56;5.20;;;1.80;;
40164;SDS011;25882;51.120;17.248;2022-07-30T05:02:23;4.22;;;1.67;;
40164;SDS011;25882;51.120;17.248;2022-07-30T05:04:51;8.52;;;1.77;;
40164;SDS011;25882;51.120;17.248;2022-07-30T05:07:17;5.10;;;1.75;;
40164;SDS011;25882;51.120;17.248;2022-07-30T05:09:45;3.38;;;1.65;;
40164;SDS011;25882;51.120;17.248;2022-07-30T05:12:12;4.63;;;1.83;;
40164;SDS011;25882;51.120;17.248;2022-07-30T05:14:38;2.83;;;1.92;;
40164;SDS011;25882;51.120;17.248;2022-07-30T05:17:04;3.55;;;1.67;;
40164;SDS011;25882;51.120;17.248;2022-07-30T05:19:30;7.55;;;2.35;;
40164;SDS011;25882;51.120;17.248;2022-07-30T05:21:56;4.70;;;1.50;;
40164;SDS011;25882;51.120;17.248;2022-07-30T05:24:23;3.42;;;1.58;;
40164;SDS011;25882;51.120;17.248;2022-07-30T05:26:51;6.13;;;1.65;;
40164;SDS011;25882;51.120;17.248;2022-07-30T05:29:17;2.95;;;1.50;;
40164;SDS011;25882;51.120;17.248;2022-07-30T05:31:43;5.22;;;1.30;;
40164;SDS011;25882;51.120;17.248;2022-07-30T05:34:09;6.55;;;2.05;;
40164;SDS011;25882;51.120;17.248;2022-07-30T05:36:35;3.80;;;1.50;;
40164;SDS011;25882;51.120;17.248;2022-07-30T05:39:02;2.55;;;1.55;;
40164;SDS011;25882;51.120;17.248;2022-07-30T05:41:28;3.40;;;1.48;;
40164;SDS011;25882;51.120;17.248;2022-07-30T05:43:56;3.30;;;1.38;;
40164;SDS011;25882;51.120;17.248;2022-07-30T05:46:22;4.07;;;1.50;;
40164;SDS011;25882;51.120;17.248;2022-07-30T05:48:49;5.82;;;2.10;;
40164;SDS011;25882;51.120;17.248;2022-07-30T05:51:15;5.35;;;1.67;;
40164;SDS011;25882;51.120;17.248;2022-07-30T05:53:43;2.40;;;1.40;;
40164;SDS011;25882;51.120;17.248;2022-07-30T05:56:10;3.22;;;1.60;;
40164;SDS011;25882;51.120;17.248;2022-07-30T05:58:36;4.90;;;1.70;;
40164;SDS011;25882;51.120;17.248;2022-07-30T06:01:04;2.95;;;1.45;;
40164;SDS011;25882;51.120;17.248;2022-07-30T06:03:30;3.15;;;1.88;;
40164;SDS011;25882;51.120;17.248;2022-07-30T06:05:56;4.85;;;1.75;;
40164;SDS011;25882;51.120;17.248;2022-07-30T06:08:22;4.57;;;1.88;;
40164;SDS011;25882;51.120;17.248;2022-07-30T06:10:49;2.22;;;1.48;;
40164;SDS011;25882;51.120;17.248;2022-07-30T06:13:15;2.45;;;1.52;;
40164;SDS011;25882;51.120;17.248;2022-07-30T06:15:41;3.45;;;1.75;;
40164;SDS011;25882;51.120;17.248;2022-07-30T06:18:09;6.13;;;1.85;;
40164;SDS011;25882;51.120;17.248;2022-07-30T06:20:35;4.82;;;1.65;;
40164;SDS011;25882;51.120;17.248;2022-07-30T06:23:01;4.45;;;1.75;;
40164;SDS011;25882;51.120;17.248;2022-07-30T06:25:28;4.40;;;1.58;;
40164;SDS011;25882;51.120;17.248;2022-07-30T06:27:54;4.40;;;1.85;;
40164;SDS011;25882;51.120;17.248;2022-07-30T06:30:20;5.55;;;1.60;;
40164;SDS011;25882;51.120;17.248;2022-07-30T06:32:47;4.93;;;1.77;;
40164;SDS011;25882;51.120;17.248;2022-07-30T06:35:14;4.07;;;2.00;;
40164;SDS011;25882;51.120;17.248;2022-07-30T06:37:41;4.53;;;2.25;;
40164;SDS011;25882;51.120;17.248;2022-07-30T06:40:08;6.30;;;2.10;;
40164;SDS011;25882;51.120;17.248;2022-07-30T06:42:35;3.67;;;1.95;;
40164;SDS011;25882;51.120;17.248;2022-07-30T06:45:01;3.30;;;1.63;;
40164;SDS011;25882;51.120;17.248;2022-07-30T06:47:28;5.30;;;2.08;;
40164;SDS011;25882;51.120;17.248;2022-07-30T06:49:55;5.63;;;1.80;;
40164;SDS011;25882;51.120;17.248;2022-07-30T06:52:23;5.63;;;1.60;;
40164;SDS011;25882;51.120;17.248;2022-07-30T06:54:50;6.60;;;2.00;;
40164;SDS011;25882;51.120;17.248;2022-07-30T06:57:16;4.40;;;1.50;;
40164;SDS011;25882;51.120;17.248;2022-07-30T06:59:42;8.00;;;1.98;;
40164;SDS011;25882;51.120;17.248;2022-07-30T07:02:09;3.40;;;2.00;;
40164;SDS011;25882;51.120;17.248;2022-07-30T07:04:35;5.97;;;1.90;;
40164;SDS011;25882;51.120;17.248;2022-07-30T07:07:02;5.57;;;2.33;;
40164;SDS011;25882;51.120;17.248;2022-07-30T07:09:30;3.83;;;2.10;;
40164;SDS011;25882;51.120;17.248;2022-07-30T07:11:56;2.85;;;1.80;;
40164;SDS011;25882;51.120;17.248;2022-07-30T07:14:22;4.85;;;2.20;;
40164;SDS011;25882;51.120;17.248;2022-07-30T07:16:48;5.72;;;2.33;;
40164;SDS011;25882;51.120;17.248;2022-07-30T07:19:15;5.85;;;2.47;;
40164;SDS011;25882;51.120;17.248;2022-07-30T07:21:41;4.18;;;2.38;;
40164;SDS011;25882;51.120;17.248;2022-07-30T07:24:07;5.55;;;2.08;;
40164;SDS011;25882;51.120;17.248;2022-07-30T07:26:35;6.13;;;1.90;;
40164;SDS011;25882;51.120;17.248;2022-07-30T07:29:01;5.68;;;1.80;;
40164;SDS011;25882;51.120;17.248;2022-07-30T07:31:27;9.52;;;1.92;;
40164;SDS011;25882;51.120;17.248;2022-07-30T07:33:54;4.20;;;1.90;;
40164;SDS011;25882;51.120;17.248;2022-07-30T07:36:20;3.15;;;2.28;;
40164;SDS011;25882;51.120;17.248;2022-07-30T07:38:46;6.63;;;2.55;;
40164;SDS011;25882;51.120;17.248;2022-07-30T07:41:13;6.43;;;2.75;;
40164;SDS011;25882;51.120;17.248;2022-07-30T07:43:40;3.67;;;2.00;;
40164;SDS011;25882;51.120;17.248;2022-07-30T07:46:07;2.88;;;1.58;;
40164;SDS011;25882;51.120;17.248;2022-07-30T07:48:33;4.28;;;1.65;;
40164;SDS011;25882;51.120;17.248;2022-07-30T07:51:00;4.93;;;2.15;;
40164;SDS011;25882;51.120;17.248;2022-07-30T07:53:26;3.95;;;2.75;;
40164;SDS011;25882;51.120;17.248;2022-07-30T07:55:52;3.03;;;2.30;;
40164;SDS011;25882;51.120;17.248;2022-07-30T07:58:18;3.97;;;2.60;;
40164;SDS011;25882;51.120;17.248;2022-07-30T08:00:47;3.08;;;1.88;;
40164;SDS011;25882;51.120;17.248;2022-07-30T08:03:13;3.38;;;1.92;;
40164;SDS011;25882;51.120;17.248;2022-07-30T08:05:39;5.85;;;2.45;;
40164;SDS011;25882;51.120;17.248;2022-07-30T08:08:06;5.65;;;2.25;;
40164;SDS011;25882;51.120;17.248;2022-07-30T08:10:32;3.67;;;2.40;;
40164;SDS011;25882;51.120;17.248;2022-07-30T08:12:58;5.15;;;2.70;;
40164;SDS011;25882;51.120;17.248;2022-07-30T08:15:27;3.83;;;2.00;;
40164;SDS011;25882;51.120;17.248;2022-07-30T08:17:54;4.07;;;2.20;;
40164;SDS011;25882;51.120;17.248;2022-07-30T08:20:20;3.95;;;2.05;;
40164;SDS011;25882;51.120;17.248;2022-07-30T08:22:49;3.88;;;2.20;;
40164;SDS011;25882;51.120;17.248;2022-07-30T08:25:16;6.20;;;2.70;;
40164;SDS011;25882;51.120;17.248;2022-07-30T08:27:44;4.38;;;2.40;;
40164;SDS011;25882;51.120;17.248;2022-07-30T08:30:10;4.60;;;2.33;;
40164;SDS011;25882;51.120;17.248;2022-07-30T08:32:37;4.75;;;2.08;;
40164;SDS011;25882;51.120;17.248;2022-07-30T08:35:06;4.90;;;2.53;;
40164;SDS011;25882;51.120;17.248;2022-07-30T08:37:33;8.07;;;2.42;;
40164;SDS011;25882;51.120;17.248;2022-07-30T08:39:59;5.53;;;2.80;;
40164;SDS011;25882;51.120;17.248;2022-07-30T08:42:27;5.53;;;2.05;;
40164;SDS011;25882;51.120;17.248;2022-07-30T08:44:53;5.78;;;2.28;;
40164;SDS011;25882;51.120;17.248;2022-07-30T08:47:22;5.18;;;2.78;;
40164;SDS011;25882;51.120;17.248;2022-07-30T08:49:50;4.60;;;2.33;;
40164;SDS011;25882;51.120;17.248;2022-07-30T08:52:19;6.63;;;2.30;;
40164;SDS011;25882;51.120;17.248;2022-07-30T08:54:45;7.88;;;3.00;;
40164;SDS011;25882;51.120;17.248;2022-07-30T08:57:11;4.20;;;2.65;;
40164;SDS011;25882;51.120;17.248;2022-07-30T08:59:38;5.95;;;3.17;;
40164;SDS011;25882;51.120;17.248;2022-07-30T09:02:04;3.72;;;2.63;;
40164;SDS011;25882;51.120;17.248;2022-07-30T09:04:30;9.13;;;2.92;;
40164;SDS011;25882;51.120;17.248;2022-07-30T09:06:58;4.45;;;2.55;;
40164;SDS011;25882;51.120;17.248;2022-07-30T09:09:27;6.65;;;2.33;;
40164;SDS011;25882;51.120;17.248;2022-07-30T09:11:53;4.13;;;2.20;;
40164;SDS011;25882;51.120;17.248;2022-07-30T09:14:19;5.43;;;2.28;;
40164;SDS011;25882;51.120;17.248;2022-07-30T09:16:45;5.47;;;2.45;;
40164;SDS011;25882;51.120;17.248;2022-07-30T09:19:13;3.78;;;2.30;;
40164;SDS011;25882;51.120;17.248;2022-07-30T09:21:40;5.47;;;2.85;;
40164;SDS011;25882;51.120;17.248;2022-07-30T09:24:08;4.78;;;2.13;;
40164;SDS011;25882;51.120;17.248;2022-07-30T09:29:22;5.20;;;2.33;;
40164;SDS011;25882;51.120;17.248;2022-07-30T09:31:54;7.40;;;2.50;;
40164;SDS011;25882;51.120;17.248;2022-07-30T09:34:25;5.25;;;2.70;;
40164;SDS011;25882;51.120;17.248;2022-07-30T09:36:52;4.93;;;2.30;;
40164;SDS011;25882;51.120;17.248;2022-07-30T09:39:26;8.38;;;2.72;;
40164;SDS011;25882;51.120;17.248;2022-07-30T09:41:55;5.85;;;2.85;;
40164;SDS011;25882;51.120;17.248;2022-07-30T09:44:23;8.40;;;3.03;;
40164;SDS011;25882;51.120;17.248;2022-07-30T09:46:49;4.80;;;2.83;;
40164;SDS011;25882;51.120;17.248;2022-07-30T09:49:17;4.32;;;2.67;;
40164;SDS011;25882;51.120;17.248;2022-07-30T09:51:44;8.70;;;4.07;;
40164;SDS011;25882;51.120;17.248;2022-07-30T09:54:11;4.72;;;2.78;;
40164;SDS011;25882;51.120;17.248;2022-07-30T09:56:37;4.10;;;2.47;;
40164;SDS011;25882;51.120;17.248;2022-07-30T09:59:16;7.32;;;2.67;;
40164;SDS011;25882;51.120;17.248;2022-07-30T10:01:51;4.88;;;3.13;;
40164;SDS011;25882;51.120;17.248;2022-07-30T10:04:22;3.47;;;2.70;;
40164;SDS011;25882;51.120;17.248;2022-07-30T10:06:48;7.28;;;2.95;;
40164;SDS011;25882;51.120;17.248;2022-07-30T10:09:23;4.88;;;2.40;;
40164;SDS011;25882;51.120;17.248;2022-07-30T10:11:49;4.07;;;2.28;;
40164;SDS011;25882;51.120;17.248;2022-07-30T10:14:18;6.28;;;2.90;;
40164;SDS011;25882;51.120;17.248;2022-07-30T10:16:44;6.30;;;3.03;;
40164;SDS011;25882;51.120;17.248;2022-07-30T10:19:10;4.47;;;2.50;;
40164;SDS011;25882;51.120;17.248;2022-07-30T10:21:37;6.20;;;2.75;;
40164;SDS011;25882;51.120;17.248;2022-07-30T10:24:04;5.57;;;3.25;;
40164;SDS011;25882;51.120;17.248;2022-07-30T10:26:31;5.53;;;3.33;;
40164;SDS011;25882;51.120;17.248;2022-07-30T10:28:59;5.13;;;2.70;;
40164;SDS011;25882;51.120;17.248;2022-07-30T10:31:27;6.40;;;2.67;;
40164;SDS011;25882;51.120;17.248;2022-07-30T10:33:54;4.57;;;2.50;;
40164;SDS011;25882;51.120;17.248;2022-07-30T10:36:21;4.63;;;2.65;;
40164;SDS011;25882;51.120;17.248;2022-07-30T10:38:49;6.65;;;2.95;;
40164;SDS011;25882;51.120;17.248;2022-07-30T10:41:16;7.03;;;2.40;;
40164;SDS011;25882;51.120;17.248;2022-07-30T10:44:00;3.70;;;2.45;;
40164;SDS011;25882;51.120;17.248;2022-07-30T10:46:42;4.85;;;3.03;;
40164;SDS011;25882;51.120;17.248;2022-07-30T10:49:15;4.85;;;2.92;;
40164;SDS011;25882;51.120;17.248;2022-07-30T10:51:42;7.72;;;4.25;;
40164;SDS011;25882;51.120;17.248;2022-07-30T10:57:02;7.22;;;5.20;;
40164;SDS011;25882;51.120;17.248;2022-07-30T10:59:29;9.25;;;4.07;;
40164;SDS011;25882;51.120;17.248;2022-07-30T11:02:10;9.60;;;4.38;;
40164;SDS011;25882;51.120;17.248;2022-07-30T11:04:39;7.05;;;4.22;;
40164;SDS011;25882;51.120;17.248;2022-07-30T11:07:27;7.10;;;4.10;;
40164;SDS011;25882;51.120;17.248;2022-07-30T11:09:55;6.53;;;4.10;;
40164;SDS011;25882;51.120;17.248;2022-07-30T11:15:17;7.68;;;5.15;;
40164;SDS011;25882;51.120;17.248;2022-07-30T11:18:01;6.35;;;4.40;;
40164;SDS011;25882;51.120;17.248;2022-07-30T11:20:29;7.05;;;4.00;;
40164;SDS011;25882;51.120;17.248;2022-07-30T11:23:09;11.75;;;5.35;;
40164;SDS011;25882;51.120;17.248;2022-07-30T11:25:37;8.30;;;4.60;;
40164;SDS011;25882;51.120;17.248;2022-07-30T11:28:04;7.25;;;5.43;;
40164;SDS011;25882;51.120;17.248;2022-07-30T11:30:31;7.15;;;5.13;;
40164;SDS011;25882;51.120;17.248;2022-07-30T11:36:04;6.68;;;4.70;;
40164;SDS011;25882;51.120;17.248;2022-07-30T11:38:51;10.90;;;6.20;;
40164;SDS011;25882;51.120;17.248;2022-07-30T11:41:18;9.77;;;5.72;;
40164;SDS011;25882;51.120;17.248;2022-07-30T11:43:44;10.82;;;7.10;;
40164;SDS011;25882;51.120;17.248;2022-07-30T11:46:11;8.02;;;6.38;;
40164;SDS011;25882;51.120;17.248;2022-07-30T11:48:40;11.77;;;8.20;;
40164;SDS011;25882;51.120;17.248;2022-07-30T11:51:07;11.65;;;8.73;;
40164;SDS011;25882;51.120;17.248;2022-07-30T11:53:34;9.07;;;6.38;;
40164;SDS011;25882;51.120;17.248;2022-07-30T11:56:00;13.05;;;7.10;;
40164;SDS011;25882;51.120;17.248;2022-07-30T11:58:28;9.15;;;6.90;;
40164;SDS011;25882;51.120;17.248;2022-07-30T12:00:57;8.70;;;6.75;;
40164;SDS011;25882;51.120;17.248;2022-07-30T12:03:26;50.42;;;24.00;;
40164;SDS011;25882;51.120;17.248;2022-07-30T12:05:55;24.40;;;12.52;;
40164;SDS011;25882;51.120;17.248;2022-07-30T12:08:21;72.90;;;35.63;;
40164;SDS011;25882;51.120;17.248;2022-07-30T12:10:54;9.93;;;7.30;;
40164;SDS011;25882;51.120;17.248;2022-07-30T12:13:22;53.88;;;27.25;;
40164;SDS011;25882;51.120;17.248;2022-07-30T12:15:48;36.78;;;22.30;;
40164;SDS011;25882;51.120;17.248;2022-07-30T12:18:21;39.95;;;20.77;;
40164;SDS011;25882;51.120;17.248;2022-07-30T12:20:52;8.55;;;6.68;;
40164;SDS011;25882;51.120;17.248;2022-07-30T12:23:20;33.28;;;20.08;;
40164;SDS011;25882;51.120;17.248;2022-07-30T12:25:47;10.27;;;7.45;;
40164;SDS011;25882;51.120;17.248;2022-07-30T12:28:18;17.05;;;11.63;;
40164;SDS011;25882;51.120;17.248;2022-07-30T12:30:45;12.55;;;8.50;;
40164;SDS011;25882;51.120;17.248;2022-07-30T12:33:11;12.15;;;7.43;;
40164;SDS011;25882;51.120;17.248;2022-07-30T12:35:41;11.38;;;7.80;;
40164;SDS011;25882;51.120;17.248;2022-07-30T12:38:10;13.68;;;8.68;;
40164;SDS011;25882;51.120;17.248;2022-07-30T12:40:49;12.25;;;8.57;;
40164;SDS011;25882;51.120;17.248;2022-07-30T12:48:37;10.10;;;8.23;;
40164;SDS011;25882;51.120;17.248;2022-07-30T12:51:13;13.43;;;9.20;;
40164;SDS011;25882;51.120;17.248;2022-07-30T12:53:41;10.82;;;8.50;;
40164;SDS011;25882;51.120;17.248;2022-07-30T12:56:10;12.20;;;8.30;;
40164;SDS011;25882;51.120;17.248;2022-07-30T12:58:38;12.80;;;9.00;;
40164;SDS011;25882;51.120;17.248;2022-07-30T13:01:04;10.38;;;8.68;;
40164;SDS011;25882;51.120;17.248;2022-07-30T13:03:31;11.95;;;10.10;;
40164;SDS011;25882;51.120;17.248;2022-07-30T13:06:10;13.18;;;10.00;;
40164;SDS011;25882;51.120;17.248;2022-07-30T13:08:48;12.98;;;9.68;;
40164;SDS011;25882;51.120;17.248;2022-07-30T13:11:16;11.27;;;9.57;;
40164;SDS011;25882;51.120;17.248;2022-07-30T13:13:44;14.27;;;10.73;;
40164;SDS011;25882;51.120;17.248;2022-07-30T13:16:10;12.73;;;10.00;;
40164;SDS011;25882;51.120;17.248;2022-07-30T13:18:37;15.07;;;11.20;;
40164;SDS011;25882;51.120;17.248;2022-07-30T13:21:04;15.43;;;10.85;;
40164;SDS011;25882;51.120;17.248;2022-07-30T13:23:34;13.75;;;11.57;;
40164;SDS011;25882;51.120;17.248;2022-07-30T13:26:02;14.20;;;11.52;;
40164;SDS011;25882;51.120;17.248;2022-07-30T13:28:30;13.93;;;12.32;;
40164;SDS011;25882;51.120;17.248;2022-07-30T13:30:56;12.20;;;9.95;;
40164;SDS011;25882;51.120;17.248;2022-07-30T13:33:23;12.50;;;10.38;;
40164;SDS011;25882;51.120;17.248;2022-07-30T13:35:49;11.63;;;10.30;;
40164;SDS011;25882;51.120;17.248;2022-07-30T13:38:15;13.77;;;10.55;;
40164;SDS011;25882;51.120;17.248;2022-07-30T13:40:41;11.50;;;10.30;;
40164;SDS011;25882;51.120;17.248;2022-07-30T13:43:09;13.25;;;11.20;;
40164;SDS011;25882;51.120;17.248;2022-07-30T13:45:36;13.55;;;10.73;;
40164;SDS011;25882;51.120;17.248;2022-07-30T13:48:02;13.23;;;11.27;;
40164;SDS011;25882;51.120;17.248;2022-07-30T13:50:29;13.43;;;11.80;;
40164;SDS011;25882;51.120;17.248;2022-07-30T13:52:55;12.10;;;10.60;;
40164;SDS011;25882;51.120;17.248;2022-07-30T13:55:22;14.18;;;11.70;;
40164;SDS011;25882;51.120;17.248;2022-07-30T13:57:48;18.50;;;12.00;;
40164;SDS011;25882;51.120;17.248;2022-07-30T14:00:16;14.02;;;11.85;;
40164;SDS011;25882;51.120;17.248;2022-07-30T14:02:43;12.32;;;10.35;;
40164;SDS011;25882;51.120;17.248;2022-07-30T14:05:09;17.80;;;11.02;;
40164;SDS011;25882;51.120;17.248;2022-07-30T14:07:36;12.13;;;10.60;;
40164;SDS011;25882;51.120;17.248;2022-07-30T14:10:02;12.88;;;11.23;;
40164;SDS011;25882;51.120;17.248;2022-07-30T14:12:29;11.40;;;10.20;;
40164;SDS011;25882;51.120;17.248;2022-07-30T14:14:56;12.32;;;11.00;;
40164;SDS011;25882;51.120;17.248;2022-07-30T14:17:23;15.18;;;11.52;;
40164;SDS011;25882;51.120;17.248;2022-07-30T14:19:50;12.60;;;11.27;;
40164;SDS011;25882;51.120;17.248;2022-07-30T14:22:18;16.38;;;11.43;;
40164;SDS011;25882;51.120;17.248;2022-07-30T14:24:45;15.73;;;11.50;;
40164;SDS011;25882;51.120;17.248;2022-07-30T14:27:11;11.23;;;9.43;;
40164;SDS011;25882;51.120;17.248;2022-07-30T14:29:38;10.07;;;9.07;;
40164;SDS011;25882;51.120;17.248;2022-07-30T14:32:04;11.20;;;9.98;;
40164;SDS011;25882;51.120;17.248;2022-07-30T14:34:32;11.55;;;10.35;;
40164;SDS011;25882;51.120;17.248;2022-07-30T14:36:59;11.13;;;9.77;;
40164;SDS011;25882;51.120;17.248;2022-07-30T14:39:25;10.75;;;9.65;;
40164;SDS011;25882;51.120;17.248;2022-07-30T14:41:51;9.18;;;8.25;;
40164;SDS011;25882;51.120;17.248;2022-07-30T14:44:18;9.55;;;8.65;;
40164;SDS011;25882;51.120;17.248;2022-07-30T14:46:44;9.32;;;7.80;;
40164;SDS011;25882;51.120;17.248;2022-07-30T14:49:12;10.13;;;8.02;;
40164;SDS011;25882;51.120;17.248;2022-07-30T14:51:41;10.23;;;8.27;;
40164;SDS011;25882;51.120;17.248;2022-07-30T14:54:07;9.73;;;7.28;;
40164;SDS011;25882;51.120;17.248;2022-07-30T14:56:36;8.93;;;7.40;;
40164;SDS011;25882;51.120;17.248;2022-07-30T14:59:03;8.02;;;7.22;;